CheckWX is a tool to help pilots better visualize weather data.  It is not intended as a substitute for an official pre-flight weather briefing.

08:41:58 UTC

KDOV TAF
Dover AFB Airport
Dover, Delaware, USA
TAF KDOV 180800Z 1808/1914 28012KT 9999 SCT030 QNH2982INS BECMG 1812/1813 32015G20KT 9999 SCT050 QNH2990INS BECMG 1823/1824 33009KT 9999 SKC QNH3001INS TX16/1818Z TN05/1908Z

Oct-18@
08:00 UTC

Oct-18 @ 08:00 UTC

Oct-18@
12:00 UTC

Oct-18 @ 12:00 UTC

TAF KDOV 180800Z 1808/1914 28012KT 9999 SCT030 QNH2982INS
Wind
  • 280° at 12 KTS
Cloud Levels
  • Scattered at 3,000' AGL

Oct-18@
12:00 UTC

Oct-18 @ 12:00 UTC

Oct-18@
23:00 UTC

Oct-18 @ 23:00 UTC

BECMG 1812/1813 32015G20KT 9999 SCT050 QNH2990INS

Becoming

Becoming Conditions expected by Fri, Oct 18, 2019 @ 13:00 UTC

Wind
  • 320° at 15 KTS
  • {Gusting to 20 KTS
Cloud Levels
  • Scattered at 5,000' AGL

Oct-18@
23:00 UTC

Oct-18 @ 23:00 UTC

Oct-19@
14:00 UTC

Oct-19 @ 14:00 UTC

BECMG 1823/1824 33009KT 9999 SKC QNH3001INS TX16/1818Z TN05/1908Z

Becoming

Becoming Conditions expected by Sat, Oct 19, 2019 @ 00:00 UTC

Wind
  • 330° at 9 KTS
Cloud Levels
  • Clear skies